sensor_id;sensor_type;location;lat;lon;timestamp;pressure;altitude;pressure_sealevel;temperature;humidity
78488;BME280;67885;49.758;9.582;2023-06-22T00:01:54;99328.78;;;25.58;54.63
78488;BME280;67885;49.758;9.582;2023-06-22T00:04:21;99340.31;;;25.47;54.56
78488;BME280;67885;49.758;9.582;2023-06-22T00:06:49;99333.47;;;25.38;55.51
78488;BME280;67885;49.758;9.582;2023-06-22T00:09:16;99322.06;;;25.22;55.64
78488;BME280;67885;49.758;9.582;2023-06-22T00:11:42;99294.41;;;25.07;56.37
78488;BME280;67885;49.758;9.582;2023-06-22T00:14:09;99274.41;;;25.01;56.51
78488;BME280;67885;49.758;9.582;2023-06-22T00:16:35;99266.72;;;24.98;56.20
78488;BME280;67885;49.758;9.582;2023-06-22T00:19:02;99259.25;;;24.94;57.11
78488;BME280;67885;49.758;9.582;2023-06-22T00:21:29;99262.59;;;24.89;56.35
78488;BME280;67885;49.758;9.582;2023-06-22T00:23:57;99256.78;;;24.85;57.50
78488;BME280;67885;49.758;9.582;2023-06-22T00:26:24;99265.50;;;24.87;56.76
78488;BME280;67885;49.758;9.582;2023-06-22T00:28:51;99262.59;;;24.89;57.11
78488;BME280;67885;49.758;9.582;2023-06-22T00:31:17;99268.41;;;24.92;57.24
78488;BME280;67885;49.758;9.582;2023-06-22T00:33:44;99262.19;;;24.85;56.44
78488;BME280;67885;49.758;9.582;2023-06-22T00:36:10;99287.94;;;25.01;56.77
78488;BME280;67885;49.758;9.582;2023-06-22T00:38:38;99288.81;;;25.02;57.02
78488;BME280;67885;49.758;9.582;2023-06-22T00:41:07;99278.97;;;25.07;56.34
78488;BME280;67885;49.758;9.582;2023-06-22T00:43:34;99275.41;;;25.14;56.42
78488;BME280;67885;49.758;9.582;2023-06-22T00:46:01;99274.75;;;25.18;56.13
78488;BME280;67885;49.758;9.582;2023-06-22T00:48:28;99269.97;;;25.20;55.90
78488;BME280;67885;49.758;9.582;2023-06-22T00:50:54;99231.91;;;25.02;56.31
78488;BME280;67885;49.758;9.582;2023-06-22T00:53:21;99250.34;;;25.18;56.11
78488;BME280;67885;49.758;9.582;2023-06-22T00:55:48;99248.91;;;25.16;55.96
78488;BME280;67885;49.758;9.582;2023-06-22T00:58:18;99259.16;;;25.14;55.83
78488;BME280;67885;49.758;9.582;2023-06-22T01:00:47;99247.09;;;25.10;56.41
78488;BME280;67885;49.758;9.582;2023-06-22T01:03:14;99253.53;;;25.08;56.04
78488;BME280;67885;49.758;9.582;2023-06-22T01:05:42;99232.38;;;24.92;55.34
78488;BME280;67885;49.758;9.582;2023-06-22T01:08:27;99256.84;;;25.11;55.58
78488;BME280;67885;49.758;9.582;2023-06-22T01:11:03;99258.75;;;25.10;55.90
78488;BME280;67885;49.758;9.582;2023-06-22T01:13:43;99278.31;;;25.12;56.11
78488;BME280;67885;49.758;9.582;2023-06-22T01:16:16;99290.59;;;25.15;55.76
78488;BME280;67885;49.758;9.582;2023-06-22T01:18:44;99294.75;;;25.17;56.19
78488;BME280;67885;49.758;9.582;2023-06-22T01:21:16;99297.91;;;25.14;55.99
78488;BME280;67885;49.758;9.582;2023-06-22T01:24:07;99300.69;;;25.01;56.75
78488;BME280;67885;49.758;9.582;2023-06-22T01:26:42;99339.22;;;25.10;56.52
78488;BME280;67885;49.758;9.582;2023-06-22T01:29:11;99367.56;;;25.14;56.75
78488;BME280;67885;49.758;9.582;2023-06-22T01:31:40;99384.22;;;25.11;56.54
78488;BME280;67885;49.758;9.582;2023-06-22T01:34:10;99406.34;;;25.07;56.96
78488;BME280;67885;49.758;9.582;2023-06-22T01:36:39;99430.72;;;25.07;57.39
78488;BME280;67885;49.758;9.582;2023-06-22T01:39:07;99479.94;;;25.04;56.90
78488;BME280;67885;49.758;9.582;2023-06-22T01:41:37;99428.69;;;24.42;58.19
78488;BME280;67885;49.758;9.582;2023-06-22T01:44:05;99553.53;;;24.95;58.34
78488;BME280;67885;49.758;9.582;2023-06-22T01:46:35;99577.91;;;24.95;57.79
78488;BME280;67885;49.758;9.582;2023-06-22T01:49:03;99598.53;;;24.96;57.51
78488;BME280;67885;49.758;9.582;2023-06-22T01:51:30;99608.97;;;24.99;58.34
78488;BME280;67885;49.758;9.582;2023-06-22T01:53:57;99617.50;;;25.02;57.51
78488;BME280;67885;49.758;9.582;2023-06-22T01:56:23;99622.31;;;25.00;57.67
78488;BME280;67885;49.758;9.582;2023-06-22T01:59:08;99637.09;;;24.91;58.21
78488;BME280;67885;49.758;9.582;2023-06-22T02:01:43;99633.94;;;24.81;59.10
78488;BME280;67885;49.758;9.582;2023-06-22T02:04:13;99630.84;;;24.77;59.64
78488;BME280;67885;49.758;9.582;2023-06-22T02:06:47;99594.16;;;24.81;59.04
78488;BME280;67885;49.758;9.582;2023-06-22T02:09:17;99524.34;;;24.83;58.50
78488;BME280;67885;49.758;9.582;2023-06-22T02:11:47;99411.81;;;24.81;58.25
78488;BME280;67885;49.758;9.582;2023-06-22T02:14:18;99295.59;;;24.66;58.51
78488;BME280;67885;49.758;9.582;2023-06-22T02:16:46;99219.59;;;24.47;59.49
78488;BME280;67885;49.758;9.582;2023-06-22T02:19:13;99148.03;;;24.30;60.33
78488;BME280;67885;49.758;9.582;2023-06-22T02:21:44;99138.50;;;24.14;60.50
78488;BME280;67885;49.758;9.582;2023-06-22T02:24:10;99160.41;;;23.99;60.70
78488;BME280;67885;49.758;9.582;2023-06-22T02:26:38;99146.03;;;23.85;61.65
78488;BME280;67885;49.758;9.582;2023-06-22T02:29:05;99135.63;;;23.82;61.77
78488;BME280;67885;49.758;9.582;2023-06-22T02:31:31;99141.66;;;23.84;61.67
78488;BME280;67885;49.758;9.582;2023-06-22T02:33:59;99155.19;;;23.84;61.04
78488;BME280;67885;49.758;9.582;2023-06-22T02:36:26;99161.03;;;23.81;61.75
78488;BME280;67885;49.758;9.582;2023-06-22T02:38:55;99167.88;;;23.83;61.20
78488;BME280;67885;49.758;9.582;2023-06-22T02:41:26;99180.78;;;23.81;61.11
78488;BME280;67885;49.758;9.582;2023-06-22T02:43:52;99195.56;;;23.85;61.34
78488;BME280;67885;49.758;9.582;2023-06-22T02:46:19;99188.25;;;23.86;61.57
78488;BME280;67885;49.758;9.582;2023-06-22T02:48:46;99219.69;;;24.00;61.63
78488;BME280;67885;49.758;9.582;2023-06-22T02:51:14;99223.03;;;24.02;61.80
78488;BME280;67885;49.758;9.582;2023-06-22T02:53:41;99231.34;;;24.07;60.91
78488;BME280;67885;49.758;9.582;2023-06-22T02:56:09;99175.81;;;23.71;60.70
78488;BME280;67885;49.758;9.582;2023-06-22T02:58:36;99224.06;;;24.01;60.42
78488;BME280;67885;49.758;9.582;2023-06-22T03:01:04;99272.34;;;24.24;60.53
78488;BME280;67885;49.758;9.582;2023-06-22T03:03:31;99281.91;;;24.34;60.71
78488;BME280;67885;49.758;9.582;2023-06-22T03:05:58;99285.84;;;24.38;60.68
78488;BME280;67885;49.758;9.582;2023-06-22T03:08:28;99283.72;;;24.47;60.48
78488;BME280;67885;49.758;9.582;2023-06-22T03:10:54;99285.38;;;24.54;59.43
78488;BME280;67885;49.758;9.582;2023-06-22T03:13:21;99285.59;;;24.60;59.01
78488;BME280;67885;49.758;9.582;2023-06-22T03:15:48;99299.31;;;24.65;58.75
78488;BME280;67885;49.758;9.582;2023-06-22T03:18:14;99286.63;;;24.72;57.41
78488;BME280;67885;49.758;9.582;2023-06-22T03:20:42;99289.94;;;24.67;57.65
78488;BME280;67885;49.758;9.582;2023-06-22T03:23:08;99302.84;;;24.85;58.16
78488;BME280;67885;49.758;9.582;2023-06-22T03:25:36;99294.69;;;24.92;57.07
78488;BME280;67885;49.758;9.582;2023-06-22T03:28:03;99293.22;;;24.96;57.44
78488;BME280;67885;49.758;9.582;2023-06-22T03:30:30;99295.03;;;25.02;57.01
78488;BME280;67885;49.758;9.582;2023-06-22T03:32:57;99297.94;;;25.07;57.54
78488;BME280;67885;49.758;9.582;2023-06-22T03:35:23;99290.22;;;25.11;57.18
78488;BME280;67885;49.758;9.582;2023-06-22T03:37:50;99297.09;;;25.14;57.01
78488;BME280;67885;49.758;9.582;2023-06-22T03:40:16;99292.31;;;25.09;57.84
78488;BME280;67885;49.758;9.582;2023-06-22T03:42:45;99297.13;;;25.07;56.99
78488;BME280;67885;49.758;9.582;2023-06-22T03:45:12;99285.03;;;25.10;57.40
78488;BME280;67885;49.758;9.582;2023-06-22T03:47:38;99289.16;;;25.12;57.33
78488;BME280;67885;49.758;9.582;2023-06-22T03:50:06;99084.13;;;23.36;56.80
78488;BME280;67885;49.758;9.582;2023-06-22T03:52:33;99324.78;;;25.16;57.25
78488;BME280;67885;49.758;9.582;2023-06-22T03:55:00;99029.44;;;23.28;57.09
78488;BME280;67885;49.758;9.582;2023-06-22T03:57:27;99190.84;;;24.53;56.63
78488;BME280;67885;49.758;9.582;2023-06-22T03:59:57;99149.16;;;23.68;57.25
78488;BME280;67885;49.758;9.582;2023-06-22T04:02:24;99058.53;;;23.12;57.75
78488;BME280;67885;49.758;9.582;2023-06-22T04:10:02;99015.97;;;22.87;56.67
78488;BME280;67885;49.758;9.582;2023-06-22T04:12:48;98980.03;;;22.60;57.27
78488;BME280;67885;49.758;9.582;2023-06-22T04:15:31;99284.34;;;25.14;56.93
78488;BME280;67885;49.758;9.582;2023-06-22T04:17:57;99294.97;;;25.16;57.02
78488;BME280;67885;49.758;9.582;2023-06-22T04:20:24;99295.63;;;25.18;57.02
78488;BME280;67885;49.758;9.582;2023-06-22T04:22:52;99289.75;;;25.21;56.83
78488;BME280;67885;49.758;9.582;2023-06-22T04:25:19;99290.97;;;25.25;57.11
78488;BME280;67885;49.758;9.582;2023-06-22T04:40:45;99283.03;;;25.30;57.02
78488;BME280;67885;49.758;9.582;2023-06-22T04:43:11;99277.19;;;25.33;57.03
78488;BME280;67885;49.758;9.582;2023-06-22T04:45:38;99269.69;;;25.35;56.71
78488;BME280;67885;49.758;9.582;2023-06-22T04:48:05;99277.81;;;25.35;57.68
78488;BME280;67885;49.758;9.582;2023-06-22T04:50:32;99283.25;;;25.29;57.76
78488;BME280;67885;49.758;9.582;2023-06-22T04:52:58;99277.66;;;25.23;57.94
78488;BME280;67885;49.758;9.582;2023-06-22T04:55:25;99276.19;;;25.21;58.36
78488;BME280;67885;49.758;9.582;2023-06-22T04:57:53;99281.41;;;25.22;57.87
78488;BME280;67885;49.758;9.582;2023-06-22T05:00:20;99270.78;;;25.21;58.12
78488;BME280;67885;49.758;9.582;2023-06-22T05:02:49;99284.56;;;25.19;58.43
78488;BME280;67885;49.758;9.582;2023-06-22T05:05:15;99262.66;;;25.21;58.81
78488;BME280;67885;49.758;9.582;2023-06-22T05:07:44;99260.97;;;25.20;58.09
78488;BME280;67885;49.758;9.582;2023-06-22T05:10:14;99262.88;;;25.19;58.48
78488;BME280;67885;49.758;9.582;2023-06-22T05:12:41;99267.66;;;25.17;58.53
78488;BME280;67885;49.758;9.582;2023-06-22T05:15:10;99262.00;;;25.19;58.56
78488;BME280;67885;49.758;9.582;2023-06-22T05:17:37;99272.22;;;25.23;58.71
78488;BME280;67885;49.758;9.582;2023-06-22T05:20:09;99238.66;;;25.24;58.32
78488;BME280;67885;49.758;9.582;2023-06-22T05:22:36;99251.31;;;25.37;58.71
78488;BME280;67885;49.758;9.582;2023-06-22T05:25:04;99247.13;;;25.41;57.88
78488;BME280;67885;49.758;9.582;2023-06-22T05:27:31;99253.16;;;25.44;58.29
78488;BME280;67885;49.758;9.582;2023-06-22T05:29:58;99242.91;;;25.46;58.77
78488;BME280;67885;49.758;9.582;2023-06-22T05:32:26;99246.03;;;25.49;58.11
78488;BME280;67885;49.758;9.582;2023-06-22T05:34:52;99233.09;;;25.45;58.52
78488;BME280;67885;49.758;9.582;2023-06-22T05:37:19;99244.50;;;25.60;58.32
78488;BME280;67885;49.758;9.582;2023-06-22T05:39:45;99244.59;;;25.72;57.89
78488;BME280;67885;49.758;9.582;2023-06-22T05:42:12;99245.38;;;25.79;58.40
78488;BME280;67885;49.758;9.582;2023-06-22T05:44:38;99245.31;;;25.86;58.41
78488;BME280;67885;49.758;9.582;2023-06-22T05:47:06;99246.31;;;25.91;58.14
78488;BME280;67885;49.758;9.582;2023-06-22T05:49:34;99252.50;;;25.99;57.61
78488;BME280;67885;49.758;9.582;2023-06-22T05:52:00;99246.81;;;26.07;57.45
78488;BME280;67885;49.758;9.582;2023-06-22T05:54:27;99246.75;;;26.14;57.57
78488;BME280;67885;49.758;9.582;2023-06-22T05:56:54;99243.09;;;26.27;57.00
78488;BME280;67885;49.758;9.582;2023-06-22T05:59:20;99243.25;;;26.32;56.43
78488;BME280;67885;49.758;9.582;2023-06-22T06:01:47;99236.75;;;26.33;55.04
78488;BME280;67885;49.758;9.582;2023-06-22T06:04:16;99236.75;;;26.33;55.90
78488;BME280;67885;49.758;9.582;2023-06-22T06:06:45;99242.97;;;26.40;55.48
78488;BME280;67885;49.758;9.582;2023-06-22T06:09:12;99242.25;;;26.45;55.67
78488;BME280;67885;49.758;9.582;2023-06-22T06:11:39;99230.72;;;26.49;55.62
78488;BME280;67885;49.758;9.582;2023-06-22T06:14:06;99222.94;;;26.53;55.64
78488;BME280;67885;49.758;9.582;2023-06-22T06:16:33;99226.28;;;26.55;55.54
78488;BME280;67885;49.758;9.582;2023-06-22T06:18:59;99220.00;;;26.54;55.78
78488;BME280;67885;49.758;9.582;2023-06-22T06:21:26;99222.88;;;26.59;56.39
78488;BME280;67885;49.758;9.582;2023-06-22T06:23:54;99222.34;;;26.69;56.57
78488;BME280;67885;49.758;9.582;2023-06-22T06:26:21;99206.38;;;26.80;55.34
78488;BME280;67885;49.758;9.582;2023-06-22T06:28:53;99214.94;;;26.95;55.48
78488;BME280;67885;49.758;9.582;2023-06-22T06:31:20;99215.69;;;27.02;54.24
78488;BME280;67885;49.758;9.582;2023-06-22T06:33:46;99220.66;;;27.05;54.44
78488;BME280;67885;49.758;9.582;2023-06-22T06:36:13;99221.38;;;27.13;53.89
78488;BME280;67885;49.758;9.582;2023-06-22T06:38:40;99220.47;;;27.19;52.79
78488;BME280;67885;49.758;9.582;2023-06-22T06:41:08;99213.50;;;27.23;52.86
78488;BME280;67885;49.758;9.582;2023-06-22T06:43:35;99209.59;;;27.19;53.85
78488;BME280;67885;49.758;9.582;2023-06-22T06:46:01;99197.38;;;27.09;53.32
78488;BME280;67885;49.758;9.582;2023-06-22T06:48:28;99215.16;;;27.24;53.68
78488;BME280;67885;49.758;9.582;2023-06-22T06:50:55;99209.72;;;27.36;53.22
78488;BME280;67885;49.758;9.582;2023-06-22T06:53:21;99208.13;;;27.47;53.75
78488;BME280;67885;49.758;9.582;2023-06-22T06:55:48;99217.84;;;27.54;52.78
78488;BME280;67885;49.758;9.582;2023-06-22T06:58:16;99220.00;;;27.64;52.74
78488;BME280;67885;49.758;9.582;2023-06-22T07:00:43;99210.56;;;27.79;52.06
78488;BME280;67885;49.758;9.582;2023-06-22T07:03:09;99160.63;;;27.73;51.99
78488;BME280;67885;49.758;9.582;2023-06-22T07:05:36;99198.13;;;28.06;52.00
78488;BME280;67885;49.758;9.582;2023-06-22T07:08:03;99203.94;;;28.10;51.24
78488;BME280;67885;49.758;9.582;2023-06-22T07:10:29;99205.81;;;28.21;51.71
78488;BME280;67885;49.758;9.582;2023-06-22T07:12:56;99201.44;;;28.32;50.98
78488;BME280;67885;49.758;9.582;2023-06-22T07:15:24;99197.38;;;28.47;50.59
78488;BME280;67885;49.758;9.582;2023-06-22T07:17:51;99196.50;;;28.58;50.02
78488;BME280;67885;49.758;9.582;2023-06-22T07:20:18;99190.25;;;28.69;50.13
78488;BME280;67885;49.758;9.582;2023-06-22T07:22:45;99194.47;;;28.77;49.98
78488;BME280;67885;49.758;9.582;2023-06-22T07:25:12;99198.97;;;28.83;49.90
78488;BME280;67885;49.758;9.582;2023-06-22T07:27:44;99194.19;;;28.90;49.27
78488;BME280;67885;49.758;9.582;2023-06-22T07:30:12;99190.59;;;29.02;49.29
78488;BME280;67885;49.758;9.582;2023-06-22T07:32:40;99185.91;;;29.14;48.83
78488;BME280;67885;49.758;9.582;2023-06-22T07:35:08;99183.34;;;29.24;48.96
78488;BME280;67885;49.758;9.582;2023-06-22T07:37:34;99172.38;;;29.36;48.96
78488;BME280;67885;49.758;9.582;2023-06-22T07:40:01;99167.94;;;29.47;48.43
78488;BME280;67885;49.758;9.582;2023-06-22T07:42:31;99157.19;;;29.57;47.99
78488;BME280;67885;49.758;9.582;2023-06-22T07:44:59;99161.97;;;29.67;47.99
78488;BME280;67885;49.758;9.582;2023-06-22T07:47:26;99162.88;;;29.73;47.78
78488;BME280;67885;49.758;9.582;2023-06-22T07:49:55;99165.69;;;29.78;47.34
78488;BME280;67885;49.758;9.582;2023-06-22T07:52:23;99154.25;;;29.81;47.87
78488;BME280;67885;49.758;9.582;2023-06-22T07:54:51;99158.16;;;29.85;47.91
78488;BME280;67885;49.758;9.582;2023-06-22T07:57:18;99151.19;;;29.94;47.67
78488;BME280;67885;49.758;9.582;2023-06-22T07:59:45;99151.56;;;30.03;47.81
78488;BME280;67885;49.758;9.582;2023-06-22T08:02:11;99149.81;;;30.14;47.50
78488;BME280;67885;49.758;9.582;2023-06-22T08:04:38;99140.41;;;30.27;46.55
78488;BME280;67885;49.758;9.582;2023-06-22T08:07:06;99136.72;;;30.38;46.31
78488;BME280;67885;49.758;9.582;2023-06-22T08:09:33;99157.84;;;30.43;45.88
78488;BME280;67885;49.758;9.582;2023-06-22T08:12:00;99141.69;;;30.41;45.54
78488;BME280;67885;49.758;9.582;2023-06-22T08:14:27;99139.03;;;30.47;46.17
78488;BME280;67885;49.758;9.582;2023-06-22T08:16:54;99134.00;;;30.60;46.91
78488;BME280;67885;49.758;9.582;2023-06-22T08:19:20;99125.66;;;30.72;45.26
78488;BME280;67885;49.758;9.582;2023-06-22T08:21:47;99126.78;;;30.76;44.89
78488;BME280;67885;49.758;9.582;2023-06-22T08:24:15;99131.75;;;30.80;44.81
78488;BME280;67885;49.758;9.582;2023-06-22T08:26:42;99129.63;;;30.87;45.19
78488;BME280;67885;49.758;9.582;2023-06-22T08:29:08;99126.69;;;30.93;45.28
78488;BME280;67885;49.758;9.582;2023-06-22T08:31:36;99131.38;;;30.98;44.36
78488;BME280;67885;49.758;9.582;2023-06-22T08:34:02;99135.22;;;31.02;43.56
78488;BME280;67885;49.758;9.582;2023-06-22T08:36:29;99145.72;;;31.05;43.42
78488;BME280;67885;49.758;9.582;2023-06-22T08:38:58;99146.84;;;31.09;42.95
78488;BME280;67885;49.758;9.582;2023-06-22T08:41:28;99143.63;;;31.18;43.23
78488;BME280;67885;49.758;9.582;2023-06-22T08:43:54;99145.03;;;31.25;43.49
78488;BME280;67885;49.758;9.582;2023-06-22T08:46:21;99142.66;;;31.34;42.75
78488;BME280;67885;49.758;9.582;2023-06-22T08:48:55;99133.38;;;31.35;42.77
78488;BME280;67885;49.758;9.582;2023-06-22T08:51:22;99137.72;;;31.36;42.75
78488;BME280;67885;49.758;9.582;2023-06-22T08:53:49;99138.31;;;31.38;42.22
78488;BME280;67885;49.758;9.582;2023-06-22T08:56:16;99138.09;;;31.45;42.04
78488;BME280;67885;49.758;9.582;2023-06-22T08:58:44;99135.91;;;31.47;41.77
78488;BME280;67885;49.758;9.582;2023-06-22T09:01:11;99133.78;;;31.54;41.56
78488;BME280;67885;49.758;9.582;2023-06-22T09:03:37;99137.66;;;31.58;41.43
78488;BME280;67885;49.758;9.582;2023-06-22T09:06:04;99137.94;;;31.62;41.79
78488;BME280;67885;49.758;9.582;2023-06-22T09:08:31;99131.97;;;31.65;41.67
78488;BME280;67885;49.758;9.582;2023-06-22T09:10:58;99114.41;;;31.61;41.74
78488;BME280;67885;49.758;9.582;2023-06-22T09:13:25;99129.00;;;31.72;40.95
78488;BME280;67885;49.758;9.582;2023-06-22T09:15:53;99129.84;;;31.77;40.29
78488;BME280;67885;49.758;9.582;2023-06-22T09:18:33;98998.00;;;31.05;39.92
78488;BME280;67885;49.758;9.582;2023-06-22T09:23:37;98837.13;;;29.89;42.76
78488;BME280;67885;49.758;9.582;2023-06-22T09:26:04;99108.38;;;32.07;41.06
78488;BME280;67885;49.758;9.582;2023-06-22T09:28:30;99126.28;;;32.25;41.63
78488;BME280;67885;49.758;9.582;2023-06-22T09:31:00;99121.69;;;32.41;40.39
78488;BME280;67885;49.758;9.582;2023-06-22T09:33:27;99104.97;;;32.42;38.03
78488;BME280;67885;49.758;9.582;2023-06-22T09:35:53;99113.47;;;32.41;39.76
78488;BME280;67885;49.758;9.582;2023-06-22T09:38:20;99127.97;;;32.41;38.65
78488;BME280;67885;49.758;9.582;2023-06-22T09:40:46;99112.34;;;32.42;38.67
78488;BME280;67885;49.758;9.582;2023-06-22T09:43:13;99101.41;;;32.52;39.58
78488;BME280;67885;49.758;9.582;2023-06-22T09:45:40;99108.84;;;32.62;38.71
78488;BME280;67885;49.758;9.582;2023-06-22T09:48:08;99111.06;;;32.70;40.06
78488;BME280;67885;49.758;9.582;2023-06-22T10:01:24;99146.25;;;32.99;38.24
78488;BME280;67885;49.758;9.582;2023-06-22T10:03:55;98963.47;;;32.16;37.80
78488;BME280;67885;49.758;9.582;2023-06-22T10:06:23;99080.31;;;32.58;39.25
78488;BME280;67885;49.758;9.582;2023-06-22T10:08:50;98804.00;;;30.99;37.80
78488;BME280;67885;49.758;9.582;2023-06-22T10:13:53;98854.66;;;31.85;38.31
78488;BME280;67885;49.758;9.582;2023-06-22T10:16:20;98898.47;;;31.95;37.86
78488;BME280;67885;49.758;9.582;2023-06-22T10:21:40;99068.88;;;33.33;37.03
78488;BME280;67885;49.758;9.582;2023-06-22T10:24:16;98955.00;;;32.58;37.09
78488;BME280;67885;49.758;9.582;2023-06-22T10:26:43;98875.72;;;31.85;36.76
78488;BME280;67885;49.758;9.582;2023-06-22T10:29:13;98818.94;;;31.39;37.00
78488;BME280;67885;49.758;9.582;2023-06-22T10:31:42;98908.38;;;32.02;38.09
78488;BME280;67885;49.758;9.582;2023-06-22T10:34:09;99056.25;;;33.37;37.98
78488;BME280;67885;49.758;9.582;2023-06-22T10:36:37;98748.53;;;31.08;36.63
78488;BME280;67885;49.758;9.582;2023-06-22T10:39:09;98711.97;;;31.40;36.99
78488;BME280;67885;49.758;9.582;2023-06-22T10:41:37;98751.59;;;31.27;35.30
78488;BME280;67885;49.758;9.582;2023-06-22T10:44:05;98774.56;;;31.16;35.63
78488;BME280;67885;49.758;9.582;2023-06-22T10:46:41;99015.59;;;33.34;35.76
78488;BME280;67885;49.758;9.582;2023-06-22T10:49:22;99026.28;;;33.41;34.55
78488;BME280;67885;49.758;9.582;2023-06-22T10:52:09;99022.75;;;33.30;34.59
78488;BME280;67885;49.758;9.582;2023-06-22T10:54:37;99019.19;;;33.30;36.35
78488;BME280;67885;49.758;9.582;2023-06-22T10:59:42;98789.47;;;31.82;34.60
78488;BME280;67885;49.758;9.582;2023-06-22T11:02:09;98794.66;;;31.84;35.10
78488;BME280;67885;49.758;9.582;2023-06-22T11:04:36;98976.91;;;33.10;36.12
78488;BME280;67885;49.758;9.582;2023-06-22T11:07:03;98727.28;;;31.57;34.68
78488;BME280;67885;49.758;9.582;2023-06-22T11:09:30;98994.75;;;33.23;36.00
78488;BME280;67885;49.758;9.582;2023-06-22T11:11:58;98926.78;;;32.84;35.04
78488;BME280;67885;49.758;9.582;2023-06-22T11:14:25;98995.31;;;33.20;34.66
78488;BME280;67885;49.758;9.582;2023-06-22T11:16:52;98995.03;;;33.21;35.71
78488;BME280;67885;49.758;9.582;2023-06-22T11:19:20;98923.19;;;32.68;35.46
78488;BME280;67885;49.758;9.582;2023-06-22T11:21:47;98960.44;;;33.20;36.04
78488;BME280;67885;49.758;9.582;2023-06-22T11:24:26;98668.16;;;31.51;35.70
78488;BME280;67885;49.758;9.582;2023-06-22T11:26:53;98983.16;;;33.52;35.54
78488;BME280;67885;49.758;9.582;2023-06-22T11:29:29;98668.41;;;31.13;36.35
78488;BME280;67885;49.758;9.582;2023-06-22T11:37:10;98950.44;;;33.66;35.13
78488;BME280;67885;49.758;9.582;2023-06-22T11:47:50;98934.97;;;33.85;34.57
78488;BME280;67885;49.758;9.582;2023-06-22T11:50:17;98806.06;;;32.99;34.56
78488;BME280;67885;49.758;9.582;2023-06-22T11:55:22;98703.22;;;31.69;34.80
78488;BME280;67885;49.758;9.582;2023-06-22T11:58:17;98628.75;;;31.62;35.15
78488;BME280;67885;49.758;9.582;2023-06-22T12:00:46;98725.91;;;32.26;35.50
78488;BME280;67885;49.758;9.582;2023-06-22T12:13:30;98905.19;;;34.03;33.89
78488;BME280;67885;49.758;9.582;2023-06-22T12:15:57;98871.53;;;33.82;34.51
78488;BME280;67885;49.758;9.582;2023-06-22T12:21:00;98618.50;;;32.09;34.61
78488;BME280;67885;49.758;9.582;2023-06-22T12:26:13;98648.66;;;31.99;34.20
78488;BME280;67885;49.758;9.582;2023-06-22T12:28:41;98858.75;;;33.56;35.02
78488;BME280;67885;49.758;9.582;2023-06-22T12:31:08;98974.19;;;34.01;34.42
78488;BME280;67885;49.758;9.582;2023-06-22T12:33:35;98630.53;;;32.28;35.53
78488;BME280;67885;49.758;9.582;2023-06-22T12:36:01;98885.22;;;33.92;35.06
78488;BME280;67885;49.758;9.582;2023-06-22T12:38:30;98898.81;;;34.07;34.88
78488;BME280;67885;49.758;9.582;2023-06-22T12:40:56;98887.00;;;34.12;35.18
78488;BME280;67885;49.758;9.582;2023-06-22T12:43:23;98770.16;;;33.40;34.60
78488;BME280;67885;49.758;9.582;2023-06-22T12:45:51;98898.19;;;34.21;35.43
78488;BME280;67885;49.758;9.582;2023-06-22T12:48:18;98775.88;;;33.49;34.93
78488;BME280;67885;49.758;9.582;2023-06-22T12:50:45;98871.63;;;34.06;34.60
78488;BME280;67885;49.758;9.582;2023-06-22T12:53:13;98616.66;;;31.84;34.17
78488;BME280;67885;49.758;9.582;2023-06-22T12:55:45;98570.88;;;32.00;33.58
78488;BME280;67885;49.758;9.582;2023-06-22T13:12:39;98579.91;;;32.16;33.80
78488;BME280;67885;49.758;9.582;2023-06-22T13:17:44;98876.13;;;34.36;34.90
78488;BME280;67885;49.758;9.582;2023-06-22T13:40:53;98898.97;;;34.26;36.04
78488;BME280;67885;49.758;9.582;2023-06-22T13:43:33;98604.03;;;31.93;36.41
78488;BME280;67885;49.758;9.582;2023-06-22T13:51:08;98525.22;;;31.80;35.60
78488;BME280;67885;49.758;9.582;2023-06-22T13:53:35;98597.72;;;32.68;35.78
78488;BME280;67885;49.758;9.582;2023-06-22T13:56:04;98496.91;;;32.05;36.21
78488;BME280;67885;49.758;9.582;2023-06-22T13:58:32;98592.75;;;32.75;35.25
78488;BME280;67885;49.758;9.582;2023-06-22T14:01:03;98815.84;;;34.40;34.93
78488;BME280;67885;49.758;9.582;2023-06-22T14:03:31;98879.34;;;34.43;35.39
78488;BME280;67885;49.758;9.582;2023-06-22T14:05:58;98409.88;;;31.91;36.88
78488;BME280;67885;49.758;9.582;2023-06-22T14:08:25;98803.41;;;34.48;35.49
78488;BME280;67885;49.758;9.582;2023-06-22T14:21:09;98776.47;;;34.69;35.94
78488;BME280;67885;49.758;9.582;2023-06-22T15:27:38;98332.59;;;32.64;32.39
78488;BME280;67885;49.758;9.582;2023-06-22T15:33:28;98648.47;;;35.15;32.72
78488;BME280;67885;49.758;9.582;2023-06-22T15:35:57;98650.84;;;35.21;32.80
78488;BME280;67885;49.758;9.582;2023-06-22T15:38:23;98657.69;;;35.24;33.27
78488;BME280;67885;49.758;9.582;2023-06-22T15:40:50;98590.88;;;34.85;31.84
78488;BME280;67885;49.758;9.582;2023-06-22T15:43:18;98611.69;;;34.91;30.05
78488;BME280;67885;49.758;9.582;2023-06-22T15:45:45;98657.19;;;35.22;31.81
78488;BME280;67885;49.758;9.582;2023-06-22T15:48:13;98625.50;;;35.05;32.41
78488;BME280;67885;49.758;9.582;2023-06-22T15:50:39;98294.22;;;32.93;32.63
78488;BME280;67885;49.758;9.582;2023-06-22T15:53:06;98319.28;;;33.05;32.02
78488;BME280;67885;49.758;9.582;2023-06-22T15:55:33;98552.38;;;34.47;31.85
78488;BME280;67885;49.758;9.582;2023-06-22T15:58:00;98557.94;;;34.42;33.75
78488;BME280;67885;49.758;9.582;2023-06-22T16:00:28;98312.72;;;32.82;33.55
78488;BME280;67885;49.758;9.582;2023-06-22T16:02:55;98685.63;;;34.98;30.92
78488;BME280;67885;49.758;9.582;2023-06-22T16:05:22;98702.13;;;34.98;30.45
78488;BME280;67885;49.758;9.582;2023-06-22T16:07:48;98342.50;;;32.59;29.42
78488;BME280;67885;49.758;9.582;2023-06-22T16:10:15;98707.28;;;34.81;29.79
78488;BME280;67885;49.758;9.582;2023-06-22T16:12:43;98709.06;;;34.71;29.72
78488;BME280;67885;49.758;9.582;2023-06-22T16:15:10;98701.47;;;34.63;30.25
78488;BME280;67885;49.758;9.582;2023-06-22T16:17:38;98553.03;;;33.66;30.09